Time;durP1;ratioP1;P1;durP2;ratioP2;P2;SDS_P1;SDS_P2;PMS_P1;PMS_P2;Temp;Humidity;BMP_temperature;BMP_pressure;BME280_temperature;BME280_humidity;BME280_pressure;Samples;Min_cycle;Max_cycle;Signal;HPM_P1;HPM_P2
2021/12/26 00:00:58;;;;;;;4.38;2.17;;;-5.10;63.30;;;;;;5038747;28;20060;-77
2021/12/26 00:03:28;;;;;;;7.93;2.25;;;-5.10;63.60;;;;;;5048607;28;20925;-78
2021/12/26 00:06:00;;;;;;;3.20;1.80;;;-5.10;63.20;;;;;;5057554;28;20085;-78
2021/12/26 00:08:26;;;;;;;2.60;1.30;;;-5.10;63.80;;;;;;5057260;28;20566;-79
2021/12/26 00:10:54;;;;;;;5.18;1.75;;;-5.00;63.20;;;;;;5048504;28;20050;-78
2021/12/26 00:13:21;;;;;;;5.15;1.80;;;-4.90;62.10;;;;;;5052580;28;20046;-78
2021/12/26 00:15:48;;;;;;;3.97;1.90;;;-4.90;62.60;;;;;;5050267;28;20054;-78
2021/12/26 00:18:15;;;;;;;3.05;1.67;;;-4.90;61.80;;;;;;5051922;28;20470;-78
2021/12/26 00:20:42;;;;;;;4.93;1.70;;;-4.80;61.00;;;;;;5046496;28;20046;-78
2021/12/26 00:23:09;;;;;;;3.97;2.00;;;-4.80;60.60;;;;;;5048457;28;20084;-78
2021/12/26 00:25:36;;;;;;;4.10;1.65;;;-4.80;61.40;;;;;;5048232;28;20081;-78
2021/12/26 00:28:06;;;;;;;3.25;1.77;;;-4.70;62.00;;;;;;5051666;28;20068;-78
2021/12/26 00:30:36;;;;;;;4.28;2.00;;;-4.80;62.40;;;;;;5046989;28;20063;-79
2021/12/26 00:33:05;;;;;;;4.10;1.80;;;-4.80;61.60;;;;;;5051264;28;20926;-78
2021/12/26 00:35:32;;;;;;;5.22;2.00;;;-4.80;60.90;;;;;;5032472;28;20784;-79
2021/12/26 00:38:00;;;;;;;4.05;1.83;;;-4.80;61.20;;;;;;5044660;28;20595;-79
2021/12/26 00:40:27;;;;;;;4.35;2.03;;;-4.90;60.90;;;;;;5045447;28;20061;-78
2021/12/26 00:42:55;;;;;;;4.75;2.00;;;-4.90;61.10;;;;;;5049619;28;20953;-77
2021/12/26 00:45:22;;;;;;;4.95;1.90;;;-4.90;60.30;;;;;;5048823;28;20041;-78
2021/12/26 00:47:49;;;;;;;4.38;1.90;;;-4.90;60.70;;;;;;5026107;28;20065;-78
2021/12/26 00:50:24;;;;;;;3.92;1.75;;;-4.90;60.90;;;;;;5042651;28;20053;-78
2021/12/26 00:52:52;;;;;;;5.55;1.73;;;-5.00;60.50;;;;;;5049373;28;20050;-78
2021/12/26 00:55:19;;;;;;;6.45;1.92;;;-4.90;60.50;;;;;;5041826;28;20049;-78
2021/12/26 00:57:46;;;;;;;3.00;1.45;;;-5.00;61.00;;;;;;5044130;28;20104;-78
2021/12/26 01:00:18;;;;;;;3.80;1.50;;;-5.00;60.10;;;;;;5050824;28;20672;-78
2021/12/26 01:02:46;;;;;;;4.13;1.60;;;-5.00;61.00;;;;;;5040937;28;20045;-78
2021/12/26 01:05:16;;;;;;;4.53;1.80;;;-5.00;60.10;;;;;;5046204;28;20060;-78
2021/12/26 01:10:10;;;;;;;3.17;1.60;;;-5.00;60.80;;;;;;5049392;28;20045;-78
2021/12/26 01:12:40;;;;;;;3.47;1.77;;;-5.00;60.40;;;;;;5043806;28;20054;-79
2021/12/26 01:15:10;;;;;;;4.50;2.25;;;-5.10;61.20;;;;;;5048476;28;20813;-78
2021/12/26 01:17:41;;;;;;;3.58;1.52;;;-5.10;60.40;;;;;;5036677;28;20121;-78
2021/12/26 01:20:13;;;;;;;5.45;1.60;;;-5.10;61.10;;;;;;5038506;28;20871;-79
2021/12/26 01:22:40;;;;;;;4.10;1.70;;;-5.20;61.80;;;;;;5042216;28;20042;-79
2021/12/26 01:25:07;;;;;;;4.13;1.90;;;-5.20;61.40;;;;;;5040168;28;20133;-79
2021/12/26 01:27:34;;;;;;;3.50;1.58;;;-5.20;62.20;;;;;;5048469;28;20054;-78
2021/12/26 01:30:02;;;;;;;4.72;1.77;;;-5.20;61.10;;;;;;5051032;28;20064;-78
2021/12/26 01:32:29;;;;;;;4.75;1.73;;;-5.20;61.80;;;;;;5046023;28;20053;-79
2021/12/26 01:34:55;;;;;;;4.97;2.13;;;-5.30;61.80;;;;;;5037756;28;20950;-78
2021/12/26 01:37:22;;;;;;;4.65;1.67;;;-5.30;61.70;;;;;;5041610;28;20046;-78
2021/12/26 01:39:49;;;;;;;4.22;1.92;;;-5.30;62.40;;;;;;5039569;28;20046;-78
2021/12/26 01:42:15;;;;;;;4.60;1.80;;;-5.30;62.20;;;;;;5041503;28;20042;-79
2021/12/26 01:44:42;;;;;;;5.45;1.95;;;-5.40;62.30;;;;;;5035607;28;20054;-79
2021/12/26 01:47:12;;;;;;;2.65;1.50;;;-5.40;61.90;;;;;;5049708;28;20054;-79
2021/12/26 01:49:39;;;;;;;2.45;1.35;;;-5.30;61.40;;;;;;5038621;28;20058;-78
2021/12/26 01:52:07;;;;;;;2.83;1.67;;;-5.30;62.00;;;;;;5028469;28;20107;-79
2021/12/26 01:54:48;;;;;;;4.15;1.80;;;-5.30;61.60;;;;;;5037588;28;20104;-79
2021/12/26 01:57:17;;;;;;;3.97;1.75;;;-5.30;61.70;;;;;;5044109;28;20058;-79
2021/12/26 01:59:46;;;;;;;3.92;1.98;;;-5.30;61.70;;;;;;5035981;28;20136;-78
2021/12/26 02:02:15;;;;;;;5.22;1.80;;;-5.30;61.40;;;;;;5044140;28;20086;-79
2021/12/26 02:04:43;;;;;;;4.72;1.30;;;-5.30;61.80;;;;;;5035609;28;20133;-79
2021/12/26 02:07:12;;;;;;;6.30;1.88;;;-5.30;61.00;;;;;;5041510;28;20106;-78
2021/12/26 02:09:39;;;;;;;4.97;1.92;;;-5.30;61.30;;;;;;5038849;28;20054;-78
2021/12/26 02:12:07;;;;;;;4.20;1.60;;;-5.30;62.10;;;;;;5035713;28;20105;-78
2021/12/26 02:14:36;;;;;;;4.80;1.50;;;-5.40;62.40;;;;;;5040220;28;20275;-78
2021/12/26 02:17:06;;;;;;;2.83;1.50;;;-5.30;62.00;;;;;;5037738;28;20629;-79
2021/12/26 02:19:35;;;;;;;4.32;1.63;;;-5.40;62.00;;;;;;5041765;28;20103;-78
2021/12/26 02:22:11;;;;;;;2.72;1.73;;;-5.40;62.50;;;;;;5040810;28;20073;-78
2021/12/26 02:27:33;;;;;;;3.70;1.70;;;-5.40;61.70;;;;;;5043142;28;20049;-79
2021/12/26 02:30:06;;;;;;;4.28;1.70;;;-5.40;62.60;;;;;;5043920;28;20053;-79
2021/12/26 02:32:33;;;;;;;3.45;1.70;;;-5.40;62.70;;;;;;5038608;28;20097;-79
2021/12/26 02:35:00;;;;;;;3.72;1.70;;;-5.50;62.20;;;;;;5038751;28;20042;-79
2021/12/26 02:37:28;;;;;;;3.85;1.70;;;-5.40;62.10;;;;;;5034214;28;20076;-79
2021/12/26 02:39:54;;;;;;;2.97;1.80;;;-5.50;62.50;;;;;;5035215;28;20056;-79
2021/12/26 02:42:23;;;;;;;4.07;1.60;;;-5.50;62.30;;;;;;5034322;28;20034;-79
2021/12/26 02:44:49;;;;;;;7.07;1.95;;;-5.50;62.70;;;;;;5039277;28;20177;-79
2021/12/26 02:47:38;;;;;;;3.42;1.73;;;-5.50;62.90;;;;;;5038715;28;20185;-79
2021/12/26 02:50:14;;;;;;;3.63;1.77;;;-5.50;62.60;;;;;;5038621;28;20054;-79
2021/12/26 02:52:41;;;;;;;3.47;1.88;;;-5.50;62.80;;;;;;5039186;28;20084;-79
2021/12/26 02:55:10;;;;;;;3.65;1.73;;;-5.50;62.50;;;;;;5035197;28;20050;-78
2021/12/26 02:57:37;;;;;;;3.90;1.58;;;-5.50;62.40;;;;;;5040597;28;20058;-78
2021/12/26 03:00:10;;;;;;;3.08;1.63;;;-5.60;63.10;;;;;;5046056;28;20084;-78
2021/12/26 03:02:41;;;;;;;3.72;1.80;;;-5.60;63.00;;;;;;5048717;28;20088;-78
2021/12/26 03:05:09;;;;;;;5.07;1.75;;;-5.60;63.60;;;;;;5041782;28;20050;-78
2021/12/26 03:07:35;;;;;;;2.25;1.50;;;-5.60;62.10;;;;;;5043820;28;20124;-79
2021/12/26 03:10:05;;;;;;;3.83;1.73;;;-5.60;62.50;;;;;;5044893;28;20767;-79
2021/12/26 03:12:33;;;;;;;3.33;1.40;;;-5.60;63.20;;;;;;5045007;28;20050;-78
2021/12/26 03:15:00;;;;;;;5.53;1.88;;;-5.60;63.20;;;;;;5041493;28;20046;-78
2021/12/26 03:17:27;;;;;;;3.45;1.45;;;-5.70;63.60;;;;;;5046493;28;20052;-79
2021/12/26 03:19:53;;;;;;;3.60;1.70;;;-5.70;63.50;;;;;;5044375;28;20052;-78
2021/12/26 03:22:24;;;;;;;3.60;1.80;;;-5.70;64.30;;;;;;5052947;28;20048;-78
2021/12/26 03:24:51;;;;;;;6.32;2.10;;;-5.70;63.70;;;;;;5050390;28;20109;-79
2021/12/26 03:27:18;;;;;;;3.72;1.85;;;-5.70;63.70;;;;;;5047632;28;20105;-79
2021/12/26 03:29:45;;;;;;;4.97;1.70;;;-5.70;63.70;;;;;;5054233;28;20105;-79
2021/12/26 03:32:14;;;;;;;4.68;1.83;;;-5.70;63.50;;;;;;5048614;28;20069;-77
2021/12/26 03:34:48;;;;;;;4.30;1.90;;;-5.70;63.90;;;;;;5043924;28;20049;-78
2021/12/26 03:37:15;;;;;;;3.97;1.63;;;-5.70;64.50;;;;;;5049141;28;20095;-78
2021/12/26 03:39:42;;;;;;;2.70;1.50;;;-5.70;64.60;;;;;;5044379;28;20050;-77
2021/12/26 03:42:10;;;;;;;4.07;2.05;;;-5.70;63.90;;;;;;5039097;28;20053;-78
2021/12/26 03:44:37;;;;;;;3.67;1.77;;;-5.70;64.20;;;;;;5039959;28;20056;-78
2021/12/26 03:47:04;;;;;;;3.42;1.67;;;-5.70;64.10;;;;;;5044351;28;20140;-78
2021/12/26 03:49:31;;;;;;;4.15;1.77;;;-5.70;64.40;;;;;;5042615;28;20148;-78
2021/12/26 03:51:58;;;;;;;3.42;1.75;;;-5.70;64.10;;;;;;5040505;28;20136;-79
2021/12/26 03:54:25;;;;;;;3.97;1.65;;;-5.60;63.00;;;;;;5042634;28;20045;-79
2021/12/26 03:56:51;;;;;;;5.57;1.92;;;-5.60;63.20;;;;;;5041091;28;20056;-78
2021/12/26 03:59:18;;;;;;;5.72;1.85;;;-5.60;63.60;;;;;;5041978;28;20105;-78
2021/12/26 04:01:45;;;;;;;3.65;1.55;;;-5.60;63.10;;;;;;5028812;28;20496;-78
2021/12/26 04:04:14;;;;;;;3.25;1.70;;;-5.60;63.10;;;;;;5039402;28;20057;-77
2021/12/26 04:06:41;;;;;;;4.20;1.63;;;-5.60;63.40;;;;;;5043364;28;20052;-78
2021/12/26 04:09:08;;;;;;;2.95;1.70;;;-5.60;63.40;;;;;;5038765;28;20049;-79
2021/12/26 04:11:36;;;;;;;4.93;1.90;;;-5.60;62.90;;;;;;5044766;28;20054;-78
2021/12/26 04:14:03;;;;;;;2.33;1.60;;;-5.60;63.30;;;;;;5043324;28;20042;-78
2021/12/26 04:16:29;;;;;;;4.70;1.75;;;-5.60;63.80;;;;;;5046529;28;20069;-77
2021/12/26 04:18:56;;;;;;;2.72;1.45;;;-5.60;62.90;;;;;;5038070;28;20110;-78
2021/12/26 04:21:23;;;;;;;2.25;1.38;;;-5.60;62.70;;;;;;5042128;28;20062;-77
2021/12/26 04:23:49;;;;;;;4.43;2.00;;;-5.60;62.10;;;;;;5040613;28;20054;-78
2021/12/26 04:26:17;;;;;;;4.00;1.58;;;-5.60;62.30;;;;;;5042224;28;20049;-78
2021/12/26 04:28:44;;;;;;;2.83;1.60;;;-5.60;62.70;;;;;;5039435;28;20070;-77
2021/12/26 04:31:15;;;;;;;4.25;1.60;;;-5.50;62.10;;;;;;5043869;28;20101;-77
2021/12/26 04:33:43;;;;;;;4.78;1.67;;;-5.50;62.60;;;;;;5044349;28;20050;-78
2021/12/26 04:36:13;;;;;;;6.50;1.80;;;-5.60;62.50;;;;;;5041201;28;20673;-77
2021/12/26 04:38:41;;;;;;;3.60;1.55;;;-5.60;61.80;;;;;;5037779;28;20886;-78
2021/12/26 04:41:08;;;;;;;3.72;1.63;;;-5.50;62.20;;;;;;5040536;28;20076;-77
2021/12/26 04:43:36;;;;;;;3.15;1.67;;;-5.60;62.50;;;;;;5039396;28;20085;-81
2021/12/26 04:46:06;;;;;;;4.05;1.90;;;-5.60;62.40;;;;;;5040411;28;20256;-77
2021/12/26 04:48:37;;;;;;;2.95;1.42;;;-5.60;62.70;;;;;;5040203;28;20092;-78
2021/12/26 04:51:06;;;;;;;3.75;1.77;;;-5.60;61.90;;;;;;5045260;28;20038;-77
2021/12/26 04:53:34;;;;;;;3.90;1.50;;;-5.50;61.60;;;;;;5046109;28;20034;-77
2021/12/26 04:56:01;;;;;;;4.97;2.05;;;-5.60;62.20;;;;;;5038640;28;20713;-77
2021/12/26 04:58:30;;;;;;;3.70;1.77;;;-5.50;61.50;;;;;;5039027;28;20042;-80
2021/12/26 05:00:57;;;;;;;3.42;1.55;;;-5.50;62.30;;;;;;5045983;28;20056;-77
2021/12/26 05:03:24;;;;;;;4.45;1.67;;;-5.50;61.90;;;;;;5045395;28;20080;-77
2021/12/26 05:05:51;;;;;;;3.85;1.60;;;-5.50;61.80;;;;;;5046626;28;20052;-78
2021/12/26 05:08:18;;;;;;;2.70;1.50;;;-5.50;61.80;;;;;;5047926;28;20559;-80
2021/12/26 05:10:48;;;;;;;6.13;1.75;;;-5.50;61.70;;;;;;5044580;28;21373;-78
2021/12/26 05:13:15;;;;;;;5.68;1.77;;;-5.50;62.40;;;;;;5049679;28;20060;-77
2021/12/26 05:15:41;;;;;;;2.60;1.40;;;-5.50;62.20;;;;;;5054051;28;20052;-77
2021/12/26 05:18:10;;;;;;;4.53;1.60;;;-5.50;61.40;;;;;;5051680;28;20038;-77
2021/12/26 05:20:36;;;;;;;2.83;1.40;;;-5.50;60.80;;;;;;5046399;28;20038;-77
2021/12/26 05:23:09;;;;;;;4.15;1.77;;;-5.50;60.70;;;;;;5049711;28;20038;-77
2021/12/26 05:25:35;;;;;;;3.35;1.60;;;-5.50;61.80;;;;;;5017057;28;20049;-77
2021/12/26 05:28:03;;;;;;;3.00;1.55;;;-5.50;61.50;;;;;;5042788;28;20050;-77
2021/12/26 05:30:30;;;;;;;4.85;1.50;;;-5.50;61.30;;;;;;5044198;28;20066;-80
2021/12/26 05:32:57;;;;;;;3.50;1.80;;;-5.50;61.90;;;;;;5047821;28;20058;-79
2021/12/26 05:35:24;;;;;;;2.50;1.40;;;-5.50;61.80;;;;;;5049741;28;20085;-78
2021/12/26 05:37:50;;;;;;;5.35;1.80;;;-5.50;60.60;;;;;;5049543;28;20821;-77
2021/12/26 05:40:17;;;;;;;3.67;1.80;;;-5.40;60.00;;;;;;5053306;28;20048;-77
2021/12/26 05:42:46;;;;;;;6.72;1.80;;;-5.40;60.50;;;;;;5049090;28;20141;-77
2021/12/26 05:45:14;;;;;;;4.80;1.80;;;-5.50;61.40;;;;;;5048524;28;20464;-78
2021/12/26 05:47:41;;;;;;;5.30;1.98;;;-5.50;60.70;;;;;;5059090;28;20113;-77
2021/12/26 05:50:13;;;;;;;3.65;1.77;;;-5.50;61.60;;;;;;5055416;28;20057;-77
2021/12/26 05:52:41;;;;;;;3.13;1.50;;;-5.50;61.50;;;;;;5054698;28;20535;-78
2021/12/26 05:55:08;;;;;;;4.43;1.92;;;-5.50;62.20;;;;;;5053407;28;20105;-77
2021/12/26 05:57:35;;;;;;;2.75;1.42;;;-5.50;62.10;;;;;;5055737;28;20039;-77
2021/12/26 06:00:10;;;;;;;3.53;1.52;;;-5.50;61.10;;;;;;5053543;28;21437;-77
2021/12/26 06:02:36;;;;;;;5.28;1.70;;;-5.50;61.30;;;;;;5052277;28;20053;-77
2021/12/26 06:05:07;;;;;;;3.17;1.38;;;-5.50;61.90;;;;;;5033005;28;20053;-78
2021/12/26 06:07:34;;;;;;;2.53;1.38;;;-5.50;61.10;;;;;;5050451;28;20081;-78
2021/12/26 06:10:00;;;;;;;6.63;1.75;;;-5.50;61.00;;;;;;5046820;28;20132;-77
2021/12/26 06:12:27;;;;;;;2.80;1.30;;;-5.50;61.40;;;;;;5051997;28;20080;-78
2021/12/26 06:14:54;;;;;;;4.18;1.98;;;-5.50;61.50;;;;;;5049456;28;20046;-78
2021/12/26 06:17:20;;;;;;;5.90;1.75;;;-5.50;61.50;;;;;;5053709;28;20037;-77
2021/12/26 06:19:47;;;;;;;3.58;1.75;;;-5.50;62.10;;;;;;5050167;28;20105;-78
2021/12/26 06:22:15;;;;;;;5.70;1.83;;;-5.50;62.30;;;;;;5047938;28;20042;-77
2021/12/26 06:24:42;;;;;;;2.65;1.50;;;-5.50;62.30;;;;;;5047401;28;20110;-79
2021/12/26 06:27:09;;;;;;;2.78;1.40;;;-5.50;62.60;;;;;;5054126;28;20029;-77
2021/12/26 06:29:36;;;;;;;4.53;1.85;;;-5.50;62.30;;;;;;5046912;28;20046;-76
2021/12/26 06:32:05;;;;;;;4.72;1.67;;;-5.50;62.60;;;;;;5054216;28;20030;-78
2021/12/26 06:34:33;;;;;;;5.53;1.65;;;-5.40;62.70;;;;;;5047350;28;20037;-79
2021/12/26 06:37:05;;;;;;;3.05;1.30;;;-5.40;62.00;;;;;;5051264;28;20053;-77
2021/12/26 06:39:32;;;;;;;3.78;1.60;;;-5.40;61.80;;;;;;5056079;28;20081;-77
2021/12/26 06:42:01;;;;;;;3.97;1.80;;;-5.30;61.60;;;;;;5046226;28;20891;-77
2021/12/26 06:44:28;;;;;;;4.25;1.73;;;-5.30;61.60;;;;;;5044752;28;20060;-78
2021/12/26 06:46:56;;;;;;;4.72;1.58;;;-5.30;62.00;;;;;;5050225;28;20046;-78
2021/12/26 06:49:22;;;;;;;3.55;1.60;;;-5.30;61.90;;;;;;5056449;28;20109;-78
2021/12/26 06:51:49;;;;;;;4.10;1.98;;;-5.30;62.50;;;;;;5054006;28;20044;-79
2021/12/26 06:54:19;;;;;;;3.33;1.80;;;-5.30;62.30;;;;;;5056003;28;20050;-80
2021/12/26 06:56:46;;;;;;;3.55;1.80;;;-5.30;62.30;;;;;;5051175;28;20057;-80
2021/12/26 06:59:13;;;;;;;3.97;1.70;;;-5.30;62.00;;;;;;5044039;28;20158;-80
2021/12/26 07:01:39;;;;;;;3.33;1.83;;;-5.30;61.70;;;;;;5050485;28;20053;-80
2021/12/26 07:04:07;;;;;;;11.02;2.33;;;-5.30;62.00;;;;;;5049706;28;20110;-81
2021/12/26 07:06:33;;;;;;;3.08;1.60;;;-5.30;62.40;;;;;;5053598;28;20046;-80
2021/12/26 07:09:00;;;;;;;3.40;1.70;;;-5.30;61.90;;;;;;5046546;28;20042;-80
2021/12/26 07:11:27;;;;;;;4.15;2.28;;;-5.30;61.90;;;;;;5037083;28;20817;-81
2021/12/26 07:13:53;;;;;;;6.72;2.00;;;-5.30;62.40;;;;;;5045111;28;20050;-81
2021/12/26 07:16:20;;;;;;;3.55;1.70;;;-5.30;62.10;;;;;;5048080;28;20129;-80
2021/12/26 07:18:47;;;;;;;4.05;1.95;;;-5.30;62.10;;;;;;5038757;28;20524;-79
2021/12/26 07:21:14;;;;;;;5.43;1.83;;;-5.30;62.80;;;;;;5042602;28;20999;-78
2021/12/26 07:23:40;;;;;;;2.47;1.50;;;-5.30;62.50;;;;;;5039118;28;20072;-78
2021/12/26 07:26:07;;;;;;;5.70;2.00;;;-5.20;62.40;;;;;;5045081;28;20560;-78
2021/12/26 07:28:34;;;;;;;3.35;1.60;;;-5.20;62.80;;;;;;5042423;28;20515;-78
2021/12/26 07:31:05;;;;;;;1.73;1.38;;;-5.30;62.90;;;;;;5027455;28;20076;-77
2021/12/26 07:33:32;;;;;;;4.32;1.92;;;-5.20;62.40;;;;;;5039149;28;20129;-79
2021/12/26 07:36:01;;;;;;;3.30;1.85;;;-5.20;62.70;;;;;;5045310;28;20046;-80
2021/12/26 07:38:28;;;;;;;5.20;2.13;;;-5.20;62.60;;;;;;5036132;28;20038;-78
2021/12/26 07:41:14;;;;;;;5.28;2.38;;;-5.20;63.10;;;;;;5030663;28;20787;-79
2021/12/26 07:43:41;;;;;;;5.30;1.80;;;-5.20;62.70;;;;;;5039724;28;20054;-78
2021/12/26 07:46:07;;;;;;;4.20;2.05;;;-5.20;63.10;;;;;;5041888;28;20099;-78
2021/12/26 07:48:34;;;;;;;4.85;2.33;;;-5.20;63.50;;;;;;5039971;28;20112;-77
2021/12/26 07:51:04;;;;;;;6.05;2.15;;;-5.20;63.40;;;;;;5041338;28;20073;-78
2021/12/26 07:53:32;;;;;;;6.50;2.30;;;-5.10;63.70;;;;;;5042454;28;20924;-78
2021/12/26 07:56:02;;;;;;;4.57;2.17;;;-5.10;62.90;;;;;;5031473;28;20061;-79
2021/12/26 07:58:29;;;;;;;3.80;2.20;;;-5.10;63.60;;;;;;5043343;28;20220;-79
2021/12/26 08:00:55;;;;;;;5.70;2.35;;;-5.10;63.00;;;;;;5042058;28;20038;-79
2021/12/26 08:03:23;;;;;;;5.15;2.55;;;-5.10;63.30;;;;;;5027617;28;20065;-78
2021/12/26 08:05:49;;;;;;;5.47;2.40;;;-5.00;63.50;;;;;;5034393;28;20045;-78
2021/12/26 08:08:17;;;;;;;4.43;2.20;;;-5.00;63.60;;;;;;5043898;28;20045;-80
2021/12/26 08:10:44;;;;;;;3.97;2.10;;;-5.00;63.60;;;;;;5050206;28;20049;-78
2021/12/26 08:13:11;;;;;;;5.18;2.50;;;-5.00;64.10;;;;;;5025178;28;20149;-78
2021/12/26 08:15:41;;;;;;;3.78;2.17;;;-5.00;64.10;;;;;;5027177;28;20072;-79
2021/12/26 08:18:07;;;;;;;4.38;2.30;;;-5.00;64.30;;;;;;5038569;28;20049;-80
2021/12/26 08:20:34;;;;;;;5.00;2.33;;;-5.00;63.60;;;;;;5034031;28;20062;-79
2021/12/26 08:23:01;;;;;;;4.82;2.13;;;-4.90;63.70;;;;;;5047459;28;20053;-78
2021/12/26 08:25:29;;;;;;;4.25;2.28;;;-4.80;63.40;;;;;;5037593;28;20050;-78
2021/12/26 08:27:56;;;;;;;4.03;2.35;;;-4.80;63.90;;;;;;5049569;28;20042;-78
2021/12/26 08:30:24;;;;;;;8.15;2.35;;;-4.80;64.20;;;;;;5048193;28;20140;-78
2021/12/26 08:32:53;;;;;;;4.00;2.20;;;-4.80;64.00;;;;;;5053251;28;20061;-78
2021/12/26 08:35:21;;;;;;;4.57;2.20;;;-4.80;64.30;;;;;;5055671;28;20057;-79
2021/12/26 08:37:47;;;;;;;3.92;2.22;;;-4.70;64.00;;;;;;5054296;28;20053;-79
2021/12/26 08:40:16;;;;;;;4.68;2.25;;;-4.70;64.40;;;;;;5047726;28;20124;-79
2021/12/26 08:42:45;;;;;;;4.95;2.45;;;-4.70;64.50;;;;;;5057424;28;20037;-79
2021/12/26 08:45:12;;;;;;;4.43;2.60;;;-4.60;64.10;;;;;;5052008;28;20060;-79
2021/12/26 08:47:40;;;;;;;7.72;2.28;;;-4.60;64.10;;;;;;5031747;28;20046;-79
2021/12/26 08:50:10;;;;;;;5.75;2.65;;;-4.50;64.50;;;;;;5028979;28;20065;-79
2021/12/26 08:52:39;;;;;;;6.82;2.60;;;-4.40;64.60;;;;;;5052378;28;20116;-79
2021/12/26 08:55:06;;;;;;;5.45;2.53;;;-4.40;64.50;;;;;;5048592;28;20044;-79
2021/12/26 08:57:35;;;;;;;5.55;2.78;;;-4.40;64.40;;;;;;5052374;28;20050;-81
2021/12/26 09:00:08;;;;;;;6.43;3.08;;;-4.30;64.50;;;;;;5047871;28;20157;-80
2021/12/26 09:02:36;;;;;;;4.60;2.53;;;-4.20;64.10;;;;;;5050137;28;20088;-80
2021/12/26 09:05:07;;;;;;;5.45;2.08;;;-4.20;64.40;;;;;;5048129;28;20052;-79
2021/12/26 09:07:33;;;;;;;5.53;2.30;;;-4.10;63.40;;;;;;5033830;28;20104;-81
2021/12/26 09:10:01;;;;;;;7.20;3.00;;;-4.00;63.50;;;;;;5048921;28;20046;-81
2021/12/26 09:12:27;;;;;;;6.10;2.72;;;-4.00;64.00;;;;;;5044970;28;20108;-81
2021/12/26 09:14:54;;;;;;;4.60;2.30;;;-4.00;64.50;;;;;;5046266;28;20053;-82
2021/12/26 09:17:21;;;;;;;5.10;2.30;;;-3.90;64.30;;;;;;5049677;28;20132;-82
2021/12/26 09:19:48;;;;;;;4.50;2.22;;;-3.80;63.90;;;;;;5042191;28;20048;-81
2021/12/26 09:22:15;;;;;;;5.15;2.10;;;-3.70;63.90;;;;;;5044770;28;20056;-81
2021/12/26 09:24:43;;;;;;;5.30;2.38;;;-3.60;63.70;;;;;;5040806;28;20073;-82
2021/12/26 09:27:11;;;;;;;6.43;3.03;;;-3.50;63.60;;;;;;5045507;28;20959;-82
2021/12/26 09:29:38;;;;;;;4.57;2.55;;;-3.40;62.70;;;;;;5051759;28;20109;-83
2021/12/26 09:32:05;;;;;;;6.82;2.47;;;-3.20;63.20;;;;;;5040691;28;20053;-82
2021/12/26 09:34:34;;;;;;;6.80;3.00;;;-2.90;61.30;;;;;;5044346;28;20174;-81
2021/12/26 09:37:05;;;;;;;5.45;2.83;;;-2.60;61.40;;;;;;5037268;28;20052;-82
2021/12/26 09:39:36;;;;;;;4.88;2.40;;;-2.20;61.70;;;;;;5046995;28;20050;-83
2021/12/26 09:42:06;;;;;;;3.88;1.92;;;-1.90;59.90;;;;;;5051725;28;20886;-82
2021/12/26 09:44:36;;;;;;;4.55;2.10;;;-1.90;58.10;;;;;;5043151;28;20050;-80
2021/12/26 09:47:07;;;;;;;5.10;2.60;;;-1.60;59.50;;;;;;5046093;28;20046;-82
2021/12/26 09:49:34;;;;;;;5.03;2.47;;;-1.40;57.40;;;;;;5032807;28;20579;-83
2021/12/26 09:52:00;;;;;;;4.40;2.60;;;-1.20;57.50;;;;;;5040806;28;20496;-82
2021/12/26 09:54:27;;;;;;;4.70;2.58;;;-0.90;59.40;;;;;;5045536;28;20104;-79
2021/12/26 09:56:54;;;;;;;4.20;2.30;;;-0.80;56.60;;;;;;5051233;28;20046;-80
2021/12/26 09:59:22;;;;;;;8.60;3.00;;;-0.60;57.80;;;;;;5050142;28;20068;-80
2021/12/26 10:01:52;;;;;;;5.03;2.50;;;-0.30;57.90;;;;;;5052212;28;20037;-80
2021/12/26 10:04:40;;;;;;;5.25;2.40;;;-0.20;55.90;;;;;;5042714;28;20057;-81
2021/12/26 10:07:12;;;;;;;5.57;2.67;;;-0.10;57.60;;;;;;5057161;28;20060;-81
2021/12/26 10:09:42;;;;;;;5.72;2.80;;;0.00;56.50;;;;;;5047439;28;20042;-81
2021/12/26 10:12:15;;;;;;;5.95;2.55;;;0.00;55.30;;;;;;5050639;28;20109;-81
2021/12/26 10:14:46;;;;;;;4.70;2.30;;;-0.10;55.10;;;;;;5042472;28;20056;-81
2021/12/26 10:17:17;;;;;;;4.88;2.35;;;0.10;57.30;;;;;;5042582;28;20552;-80
2021/12/26 10:19:47;;;;;;;4.68;2.40;;;0.20;55.20;;;;;;5041213;28;20061;-82
2021/12/26 10:22:26;;;;;;;4.68;2.40;;;0.20;57.50;;;;;;5042563;28;20196;-80
2021/12/26 10:24:55;;;;;;;7.18;2.60;;;0.30;56.80;;;;;;5049721;28;20104;-80
2021/12/26 10:27:31;;;;;;;13.95;2.42;;;0.60;54.80;;;;;;5039565;28;20053;-80
2021/12/26 10:30:00;;;;;;;6.65;2.55;;;0.80;56.10;;;;;;5036767;28;20144;-80
2021/12/26 10:32:29;;;;;;;5.13;2.40;;;0.70;56.10;;;;;;5030655;28;20047;-80
2021/12/26 10:35:11;;;;;;;5.43;3.03;;;0.50;53.80;;;;;;5022873;28;20049;-80
2021/12/26 10:37:41;;;;;;;5.60;2.50;;;0.50;54.90;;;;;;5044732;28;20144;-80
2021/12/26 10:40:11;;;;;;;4.70;2.50;;;0.30;56.70;;;;;;5045966;28;20053;-80
2021/12/26 10:42:53;;;;;;;5.17;2.60;;;0.60;56.50;;;;;;5043260;28;20108;-81
2021/12/26 10:45:27;;;;;;;8.18;2.80;;;0.80;56.00;;;;;;5045691;28;20060;-81
2021/12/26 10:48:03;;;;;;;6.30;2.63;;;0.80;57.20;;;;;;5053261;28;20045;-81
2021/12/26 10:50:44;;;;;;;7.07;2.70;;;0.90;55.90;;;;;;5051087;28;20156;-81
2021/12/26 10:53:14;;;;;;;5.57;2.63;;;1.00;56.50;;;;;;5035792;28;20926;-79
2021/12/26 10:55:53;;;;;;;6.22;2.72;;;1.10;55.90;;;;;;5026673;28;20412;-80
2021/12/26 10:58:24;;;;;;;6.28;2.90;;;1.10;55.60;;;;;;5051298;28;20069;-81
2021/12/26 11:00:59;;;;;;;5.40;3.00;;;1.10;56.20;;;;;;5052885;28;20045;-81
2021/12/26 11:03:34;;;;;;;7.82;3.33;;;1.10;56.20;;;;;;5053991;28;20045;-80
2021/12/26 11:06:07;;;;;;;6.05;3.35;;;1.10;56.60;;;;;;5033998;28;20084;-79
2021/12/26 11:08:38;;;;;;;6.45;3.30;;;1.10;57.00;;;;;;5047529;28;20046;-79
2021/12/26 11:11:18;;;;;;;5.47;2.90;;;1.10;57.10;;;;;;5043450;28;20068;-79
2021/12/26 11:14:01;;;;;;;5.05;2.90;;;1.00;56.40;;;;;;5060359;28;20065;-79
2021/12/26 11:16:43;;;;;;;7.45;3.40;;;1.00;57.30;;;;;;5060535;28;20062;-80
2021/12/26 11:19:10;;;;;;;5.82;3.10;;;1.10;58.00;;;;;;5042049;28;20029;-79
2021/12/26 11:21:39;;;;;;;6.43;2.90;;;0.80;58.20;;;;;;5046392;28;20248;-79
2021/12/26 11:24:06;;;;;;;8.13;3.17;;;0.80;59.00;;;;;;5049315;28;20046;-80
2021/12/26 11:26:39;;;;;;;5.47;3.20;;;0.70;59.30;;;;;;5059132;28;20099;-82
2021/12/26 11:29:06;;;;;;;7.75;3.38;;;0.50;59.30;;;;;;5053189;28;20029;-80
2021/12/26 11:31:33;;;;;;;6.65;3.20;;;0.60;60.00;;;;;;5059743;28;20042;-79
2021/12/26 11:34:04;;;;;;;7.72;3.28;;;0.80;60.80;;;;;;5057904;28;20049;-79
2021/12/26 11:36:32;;;;;;;7.30;3.47;;;1.10;58.80;;;;;;5064436;28;20088;-78
2021/12/26 11:39:08;;;;;;;;;;;1.20;58.80;;;;;;5049808;28;20048;-78
2021/12/26 11:41:46;;;;;;;7.07;3.55;;;1.30;59.30;;;;;;5065985;28;19913;-79
2021/12/26 11:44:20;;;;;;;7.97;3.63;;;1.30;59.90;;;;;;5061467;28;20037;-79
2021/12/26 11:47:17;;;;;;;9.43;3.40;;;1.20;59.90;;;;;;5067053;28;20069;-77
2021/12/26 11:50:05;;;;;;;13.30;3.53;;;1.10;59.90;;;;;;5046347;28;20048;-78
2021/12/26 11:52:52;;;;;;;7.10;3.70;;;1.00;60.40;;;;;;5071755;28;20048;-79
2021/12/26 11:55:47;;;;;;;6.60;3.65;;;1.00;61.00;;;;;;5066922;28;20037;-78
2021/12/26 11:58:45;;;;;;;6.07;3.10;;;0.80;61.70;;;;;;5056036;28;20041;-78
2021/12/26 12:01:19;;;;;;;7.70;3.75;;;0.90;62.30;;;;;;5068691;28;20066;-78
2021/12/26 12:03:46;;;;;;;7.53;4.03;;;1.00;62.90;;;;;;5070484;28;20056;-78
2021/12/26 12:06:26;;;;;;;12.40;3.88;;;0.90;62.70;;;;;;5069394;28;20042;-79
2021/12/26 12:08:54;;;;;;;7.30;3.63;;;1.00;63.20;;;;;;5068345;28;20056;-78
2021/12/26 12:11:21;;;;;;;6.30;3.78;;;1.10;63.40;;;;;;5067962;28;20073;-78
2021/12/26 12:13:51;;;;;;;8.25;3.88;;;1.20;63.30;;;;;;5065441;28;20093;-79
2021/12/26 12:16:23;;;;;;;7.55;3.78;;;1.10;62.50;;;;;;5070453;28;20037;-78
2021/12/26 12:18:53;;;;;;;7.23;3.90;;;1.20;63.30;;;;;;5070497;28;20088;-78
2021/12/26 12:21:46;;;;;;;7.25;4.15;;;1.20;63.50;;;;;;5067884;28;20295;-79
2021/12/26 12:24:16;;;;;;;9.70;4.20;;;1.30;63.70;;;;;;5062710;28;20060;-78
2021/12/26 12:26:50;;;;;;;8.48;4.20;;;1.30;63.10;;;;;;5047501;28;20065;-78
2021/12/26 12:29:30;;;;;;;5.97;3.85;;;1.20;63.60;;;;;;5048500;28;20041;-78
2021/12/26 12:32:09;;;;;;;7.65;3.90;;;1.20;63.70;;;;;;5065852;28;20109;-78
2021/12/26 12:34:47;;;;;;;8.02;4.70;;;1.30;64.00;;;;;;5065455;28;20026;-79
2021/12/26 12:37:40;;;;;;;10.00;4.38;;;1.30;64.20;;;;;;5067920;28;20034;-78
2021/12/26 12:40:26;;;;;;;10.95;4.57;;;1.10;63.80;;;;;;5064572;28;20053;-78
2021/12/26 12:43:01;;;;;;;9.32;4.15;;;1.00;64.70;;;;;;5068428;28;20026;-78
2021/12/26 12:45:51;;;;;;;7.35;3.95;;;1.00;64.90;;;;;;5068336;28;20056;-78
2021/12/26 12:48:45;;;;;;;8.63;3.88;;;1.10;65.00;;;;;;5064095;28;20061;-78
2021/12/26 12:51:18;;;;;;;9.48;4.30;;;1.10;64.80;;;;;;5063849;28;20069;-79
2021/12/26 12:53:46;;;;;;;8.38;4.25;;;1.10;64.50;;;;;;5062950;28;20038;-77
2021/12/26 12:56:35;;;;;;;10.05;4.63;;;1.20;65.20;;;;;;5067871;28;20064;-78
2021/12/26 12:59:14;;;;;;;8.45;3.97;;;1.20;65.70;;;;;;5064486;28;20045;-78
2021/12/26 13:01:58;;;;;;;8.18;4.38;;;1.20;65.60;;;;;;5064937;28;20050;-77
2021/12/26 13:04:29;;;;;;;6.95;4.10;;;1.10;64.90;;;;;;5069807;28;20021;-78
2021/12/26 13:06:58;;;;;;;7.40;4.57;;;1.20;65.40;;;;;;5046263;28;20037;-78